EGHH/BOH METAR and TAF weather

Enter ICAO airport designator
Station Type Date Time Source
EGHH METAR 2021/10/22 20:20 UTC NOAA

EGHH 222020Z 27005KT CAVOK 09/07 Q1025


Station Type Date Time Source
EGHH Decoded METAR 2021/10/22 20:20 UTC NOAA

Bournemouth Airport, United Kingdom (EGHH) 50-47N 001-50W 0M
Oct 22, 2021 - 04:20 PM EDT / 2021.10.22 2020 UTC
Wind: from the W (270 degrees) at 6 MPH (5 KT):0
Visibility: greater than 7 mile(s):0
Temperature: 48 F (9 C)
Dew Point: 44 F (7 C)
Relative Humidity: 87%
Pressure (altimeter): 30.27 in. Hg (1025 hPa)
ob: EGHH 222020Z 27005KT CAVOK 09/07 Q1025
cycle: 20

Station Type Date Time Source
EGHH TAF 2021/10/07 18:59 UTC NOAA

TAF EGHH 071752Z 0718/0823 CNL

Example: see airport list